Time;durP1;ratioP1;P1;durP2;ratioP2;P2;SDS_P1;SDS_P2;PMS_P1;PMS_P2;Temp;Humidity;BMP_temperature;BMP_pressure;BME280_temperature;BME280_humidity;BME280_pressure;Samples;Min_cycle;Max_cycle;Signal;HPM_P1;HPM_P2
2022/10/19 00:02:13;;;;;;;12.02;6.47;;;;;;;;;;5041574;28;20049;-65
2022/10/19 00:04:40;;;;;;;7.95;5.57;;;;;;;;;;5039928;28;20063;-65
2022/10/19 00:07:06;;;;;;;9.77;5.80;;;;;;;;;;5041183;28;20053;-64
2022/10/19 00:09:32;;;;;;;9.95;5.95;;;;;;;;;;5041076;28;20049;-64
2022/10/19 00:11:59;;;;;;;9.40;5.38;;;;;;;;;;5054188;28;20052;-65
2022/10/19 00:14:25;;;;;;;9.25;5.35;;;;;;;;;;5054845;28;20134;-64
2022/10/19 00:16:53;;;;;;;13.57;5.88;;;;;;;;;;5032065;28;20068;-64
2022/10/19 00:19:21;;;;;;;11.02;5.70;;;;;;;;;;5033280;28;20057;-65
2022/10/19 00:21:47;;;;;;;6.78;5.13;;;;;;;;;;5041435;28;20050;-66
2022/10/19 00:24:19;;;;;;;9.75;5.65;;;;;;;;;;5040717;28;20049;-65
2022/10/19 00:26:46;;;;;;;10.57;5.57;;;;;;;;;;5040488;28;20057;-64
2022/10/19 00:29:13;;;;;;;8.00;5.00;;;;;;;;;;5047437;28;20512;-65
2022/10/19 00:31:40;;;;;;;10.70;4.95;;;;;;;;;;5048348;28;20742;-64
2022/10/19 00:34:06;;;;;;;9.25;4.97;;;;;;;;;;5039413;28;20046;-65
2022/10/19 00:36:34;;;;;;;7.68;5.18;;;;;;;;;;5041327;28;20757;-64
2022/10/19 00:39:01;;;;;;;11.27;5.28;;;;;;;;;;5026177;28;20053;-65
2022/10/19 00:41:29;;;;;;;11.32;5.80;;;;;;;;;;5032335;28;20530;-65
2022/10/19 00:43:57;;;;;;;8.93;5.30;;;;;;;;;;5041798;28;20061;-64
2022/10/19 00:46:24;;;;;;;8.15;4.82;;;;;;;;;;5034030;28;20580;-65
2022/10/19 00:48:52;;;;;;;7.80;5.20;;;;;;;;;;5061576;28;20072;-65
2022/10/19 00:51:20;;;;;;;7.38;4.95;;;;;;;;;;5054407;28;20056;-65
2022/10/19 00:53:46;;;;;;;7.10;5.22;;;;;;;;;;5041049;28;20077;-64
2022/10/19 00:56:14;;;;;;;6.85;5.15;;;;;;;;;;5039609;28;20060;-66
2022/10/19 00:58:41;;;;;;;6.43;4.93;;;;;;;;;;5039723;28;20050;-64
2022/10/19 01:01:08;;;;;;;10.00;5.10;;;;;;;;;;5040563;28;20053;-65
2022/10/19 01:03:35;;;;;;;7.35;4.97;;;;;;;;;;5039033;28;20081;-64
2022/10/19 01:06:02;;;;;;;9.80;5.28;;;;;;;;;;5046678;28;20058;-64
2022/10/19 01:08:29;;;;;;;7.95;5.72;;;;;;;;;;5032169;28;20050;-65
2022/10/19 01:11:13;;;;;;;7.07;5.53;;;;;;;;;;5044861;28;20507;-64
2022/10/19 01:13:54;;;;;;;8.52;5.32;;;;;;;;;;5024321;28;20103;-64
2022/10/19 01:16:47;;;;;;;7.70;4.50;;;;;;;;;;5042005;28;20057;-65
2022/10/19 01:19:29;;;;;;;7.30;4.90;;;;;;;;;;5040231;28;20056;-64
2022/10/19 01:21:58;;;;;;;7.72;4.70;;;;;;;;;;5051922;28;20055;-67
2022/10/19 01:24:29;;;;;;;6.57;4.55;;;;;;;;;;5052830;28;20523;-66
2022/10/19 01:27:11;;;;;;;9.35;5.72;;;;;;;;;;5043025;28;20061;-66
2022/10/19 01:29:55;;;;;;;6.57;4.53;;;;;;;;;;5043365;28;20049;-65
2022/10/19 01:32:27;;;;;;;5.20;4.30;;;;;;;;;;5042895;28;20582;-67
2022/10/19 01:34:53;;;;;;;7.38;4.78;;;;;;;;;;5043867;28;20629;-66
2022/10/19 01:37:32;;;;;;;7.95;5.40;;;;;;;;;;5043753;28;20053;-67
2022/10/19 01:40:05;;;;;;;9.43;5.65;;;;;;;;;;5044115;28;20049;-66
2022/10/19 01:42:31;;;;;;;7.75;4.50;;;;;;;;;;5042436;28;20053;-66
2022/10/19 01:45:24;;;;;;;5.63;4.68;;;;;;;;;;5042866;28;20058;-66
2022/10/19 01:47:53;;;;;;;8.73;4.78;;;;;;;;;;5031555;28;20049;-67
2022/10/19 01:50:20;;;;;;;7.68;4.80;;;;;;;;;;5048008;28;20049;-66
2022/10/19 01:52:48;;;;;;;7.22;5.22;;;;;;;;;;5024183;28;20054;-66
2022/10/19 01:55:16;;;;;;;7.60;5.22;;;;;;;;;;5041777;28;20060;-66
2022/10/19 01:57:45;;;;;;;9.52;5.10;;;;;;;;;;5049036;28;20099;-66
2022/10/19 02:00:12;;;;;;;8.00;5.30;;;;;;;;;;5042534;28;20490;-66
2022/10/19 02:02:41;;;;;;;7.93;4.90;;;;;;;;;;5032232;28;20322;-66
2022/10/19 02:05:10;;;;;;;9.45;5.10;;;;;;;;;;5039903;28;20649;-66
2022/10/19 02:07:36;;;;;;;7.55;4.90;;;;;;;;;;5036546;28;20077;-66
2022/10/19 02:10:03;;;;;;;10.88;5.40;;;;;;;;;;5039091;28;20160;-66
2022/10/19 02:12:30;;;;;;;7.07;4.13;;;;;;;;;;5044851;28;20133;-66
2022/10/19 02:14:58;;;;;;;8.75;5.13;;;;;;;;;;5063936;28;20049;-66
2022/10/19 02:17:31;;;;;;;7.10;5.05;;;;;;;;;;5038054;28;20061;-66
2022/10/19 02:19:58;;;;;;;9.98;5.00;;;;;;;;;;5025087;28;20054;-66
2022/10/19 02:22:24;;;;;;;7.95;4.68;;;;;;;;;;5042292;28;20057;-66
2022/10/19 02:24:50;;;;;;;11.02;4.90;;;;;;;;;;5043103;28;20172;-66
2022/10/19 02:27:17;;;;;;;8.65;4.88;;;;;;;;;;5039508;28;20050;-66
2022/10/19 02:29:44;;;;;;;7.55;4.18;;;;;;;;;;5023509;28;20462;-66
2022/10/19 02:32:10;;;;;;;7.85;4.95;;;;;;;;;;5054048;28;20053;-65
2022/10/19 02:34:37;;;;;;;6.65;4.20;;;;;;;;;;5058850;28;20096;-65
2022/10/19 02:37:04;;;;;;;7.60;4.47;;;;;;;;;;5042404;28;20049;-66
2022/10/19 02:39:30;;;;;;;8.30;4.15;;;;;;;;;;5057413;28;20049;-65
2022/10/19 02:42:19;;;;;;;9.65;5.07;;;;;;;;;;5041361;28;20574;-66
2022/10/19 02:45:05;;;;;;;9.52;4.68;;;;;;;;;;5032546;28;20062;-65
2022/10/19 02:47:37;;;;;;;6.78;4.60;;;;;;;;;;5041175;28;20160;-66
2022/10/19 02:50:05;;;;;;;8.93;5.00;;;;;;;;;;5054681;28;20422;-65
2022/10/19 02:52:31;;;;;;;9.40;4.85;;;;;;;;;;5043484;28;20057;-65
2022/10/19 02:54:57;;;;;;;6.05;4.68;;;;;;;;;;5041740;28;20570;-65
2022/10/19 02:57:24;;;;;;;5.78;4.30;;;;;;;;;;5042506;28;20053;-65
2022/10/19 02:59:51;;;;;;;9.88;4.55;;;;;;;;;;5053500;28;20053;-66
2022/10/19 03:02:18;;;;;;;9.10;4.38;;;;;;;;;;5027634;28;20060;-66
2022/10/19 03:04:45;;;;;;;10.27;5.10;;;;;;;;;;5043436;28;20060;-65
2022/10/19 03:07:13;;;;;;;9.82;4.63;;;;;;;;;;5041989;28;20504;-65
2022/10/19 03:09:40;;;;;;;11.75;4.78;;;;;;;;;;5047969;28;20046;-65
2022/10/19 03:12:06;;;;;;;7.13;4.25;;;;;;;;;;5040358;28;20053;-65
2022/10/19 03:14:33;;;;;;;9.50;4.35;;;;;;;;;;5042255;28;20053;-65
2022/10/19 03:16:59;;;;;;;6.13;4.00;;;;;;;;;;5042161;28;20072;-65
2022/10/19 03:19:25;;;;;;;8.60;4.80;;;;;;;;;;5041657;28;20054;-66
2022/10/19 03:21:52;;;;;;;7.90;4.22;;;;;;;;;;5043817;28;20079;-65
2022/10/19 03:24:18;;;;;;;6.93;4.80;;;;;;;;;;5022952;28;20428;-65
2022/10/19 03:26:45;;;;;;;10.15;4.80;;;;;;;;;;5035039;28;20054;-65
2022/10/19 03:29:11;;;;;;;7.53;4.63;;;;;;;;;;5062278;28;20499;-65
2022/10/19 03:31:38;;;;;;;7.80;4.53;;;;;;;;;;5045018;28;20096;-64
2022/10/19 03:34:04;;;;;;;11.48;5.00;;;;;;;;;;5041877;28;20058;-63
2022/10/19 03:36:31;;;;;;;7.25;4.63;;;;;;;;;;5041811;28;20565;-65
2022/10/19 03:38:59;;;;;;;10.18;4.45;;;;;;;;;;5045879;28;20475;-65
2022/10/19 03:41:27;;;;;;;5.72;4.28;;;;;;;;;;5041633;28;20527;-65
2022/10/19 03:43:53;;;;;;;10.10;4.40;;;;;;;;;;5025956;28;20504;-65
2022/10/19 03:46:20;;;;;;;9.52;4.20;;;;;;;;;;5042524;28;20053;-65
2022/10/19 03:48:46;;;;;;;8.18;4.25;;;;;;;;;;5041772;28;20050;-65
2022/10/19 03:51:14;;;;;;;9.25;4.43;;;;;;;;;;5031355;28;20050;-65
2022/10/19 03:53:41;;;;;;;5.15;4.47;;;;;;;;;;5049275;28;20053;-65
2022/10/19 03:56:11;;;;;;;7.72;4.57;;;;;;;;;;5055377;28;20049;-65
2022/10/19 03:58:38;;;;;;;5.97;3.90;;;;;;;;;;5024764;28;20576;-65
2022/10/19 04:01:12;;;;;;;5.15;4.35;;;;;;;;;;5029330;28;20355;-65
2022/10/19 04:03:38;;;;;;;6.07;3.92;;;;;;;;;;5040043;28;20045;-65
2022/10/19 04:06:06;;;;;;;4.80;3.90;;;;;;;;;;5051376;28;20530;-65
2022/10/19 04:08:33;;;;;;;6.53;3.83;;;;;;;;;;5040304;28;20088;-65
2022/10/19 04:11:00;;;;;;;6.25;4.15;;;;;;;;;;5041257;28;20053;-65
2022/10/19 04:13:27;;;;;;;5.63;3.72;;;;;;;;;;5040532;28;20049;-65
2022/10/19 04:15:53;;;;;;;6.55;4.75;;;;;;;;;;5049107;28;20057;-65
2022/10/19 04:18:20;;;;;;;6.50;3.83;;;;;;;;;;5041092;28;20649;-65
2022/10/19 04:20:46;;;;;;;6.75;4.22;;;;;;;;;;5053299;28;20053;-65
2022/10/19 04:23:13;;;;;;;6.57;4.07;;;;;;;;;;5044717;28;20057;-65
2022/10/19 04:25:39;;;;;;;4.40;3.90;;;;;;;;;;5054848;28;20495;-65
2022/10/19 04:28:05;;;;;;;6.45;3.70;;;;;;;;;;5035601;28;20046;-65
2022/10/19 04:30:32;;;;;;;7.97;4.32;;;;;;;;;;5029874;28;20587;-65
2022/10/19 04:32:58;;;;;;;5.22;3.80;;;;;;;;;;5039262;28;20053;-65
2022/10/19 04:35:24;;;;;;;5.18;3.97;;;;;;;;;;5054547;28;20118;-65
2022/10/19 04:37:51;;;;;;;7.85;4.00;;;;;;;;;;5041145;28;20077;-65
2022/10/19 04:40:18;;;;;;;8.45;3.92;;;;;;;;;;5041653;28;20080;-65
2022/10/19 04:42:44;;;;;;;5.20;3.47;;;;;;;;;;5042195;28;20061;-64
2022/10/19 04:45:10;;;;;;;5.63;4.00;;;;;;;;;;5037409;28;20504;-65
2022/10/19 04:47:37;;;;;;;6.57;3.95;;;;;;;;;;5041232;28;20058;-65
2022/10/19 04:50:03;;;;;;;5.75;3.78;;;;;;;;;;5039853;28;20045;-65
2022/10/19 04:52:30;;;;;;;4.35;3.95;;;;;;;;;;5033694;28;20791;-65
2022/10/19 04:54:56;;;;;;;5.40;3.85;;;;;;;;;;5041501;28;20046;-65
2022/10/19 04:57:22;;;;;;;6.43;3.75;;;;;;;;;;5040099;28;20049;-65
2022/10/19 04:59:48;;;;;;;4.00;3.60;;;;;;;;;;5048998;28;20050;-65
2022/10/19 05:02:15;;;;;;;5.22;3.90;;;;;;;;;;5039233;28;20050;-66
2022/10/19 05:04:41;;;;;;;3.85;3.33;;;;;;;;;;5047271;28;20054;-65
2022/10/19 05:07:10;;;;;;;5.43;3.72;;;;;;;;;;5021965;28;20049;-66
2022/10/19 05:09:39;;;;;;;6.00;3.45;;;;;;;;;;5050866;28;20507;-65
2022/10/19 05:12:05;;;;;;;3.80;3.25;;;;;;;;;;5027441;28;20050;-65
2022/10/19 05:14:32;;;;;;;4.45;3.88;;;;;;;;;;5047303;28;20050;-65
2022/10/19 05:17:02;;;;;;;5.22;3.80;;;;;;;;;;5037690;28;20091;-65
2022/10/19 05:19:28;;;;;;;5.00;3.67;;;;;;;;;;5039733;28;20050;-65
2022/10/19 05:21:54;;;;;;;5.40;4.10;;;;;;;;;;5021903;28;20519;-65
2022/10/19 05:24:20;;;;;;;4.85;3.60;;;;;;;;;;5021073;28;20087;-65
2022/10/19 05:26:47;;;;;;;7.57;4.03;;;;;;;;;;5033423;28;20452;-65
2022/10/19 05:29:13;;;;;;;5.50;3.65;;;;;;;;;;5041699;28;20565;-65
2022/10/19 05:31:40;;;;;;;5.13;4.40;;;;;;;;;;5040257;28;20053;-65
2022/10/19 05:34:06;;;;;;;6.22;4.05;;;;;;;;;;5039674;28;20061;-66
2022/10/19 05:36:38;;;;;;;5.47;4.03;;;;;;;;;;5041820;28;20049;-65
2022/10/19 05:39:06;;;;;;;8.90;4.10;;;;;;;;;;5052671;28;20049;-65
2022/10/19 05:41:32;;;;;;;9.30;4.25;;;;;;;;;;5051152;28;20545;-65
2022/10/19 05:44:00;;;;;;;10.40;4.90;;;;;;;;;;5061682;28;20053;-65
2022/10/19 05:46:27;;;;;;;5.38;4.18;;;;;;;;;;5048448;28;20057;-65
2022/10/19 05:48:54;;;;;;;6.95;4.70;;;;;;;;;;5041037;28;20627;-65
2022/10/19 05:51:21;;;;;;;7.78;4.50;;;;;;;;;;5044725;28;20084;-65
2022/10/19 05:53:48;;;;;;;8.27;4.38;;;;;;;;;;5045803;28;20058;-62
2022/10/19 05:56:16;;;;;;;7.45;4.57;;;;;;;;;;5044696;28;20049;-65
2022/10/19 05:58:43;;;;;;;17.23;5.05;;;;;;;;;;5049223;28;20100;-65
2022/10/19 06:01:10;;;;;;;7.00;4.75;;;;;;;;;;5059423;28;20049;-64
2022/10/19 06:03:36;;;;;;;8.63;5.00;;;;;;;;;;5063469;28;20498;-64
2022/10/19 06:06:03;;;;;;;5.60;4.35;;;;;;;;;;5041283;28;20053;-64
2022/10/19 06:08:29;;;;;;;5.85;4.75;;;;;;;;;;5046901;28;20053;-64
2022/10/19 06:11:09;;;;;;;10.73;5.07;;;;;;;;;;5052075;28;20056;-64
2022/10/19 06:13:36;;;;;;;6.20;3.75;;;;;;;;;;5062887;28;20522;-64
2022/10/19 06:16:03;;;;;;;5.97;4.65;;;;;;;;;;5053105;28;20045;-64
2022/10/19 06:18:29;;;;;;;7.22;5.03;;;;;;;;;;5044619;28;20538;-64
2022/10/19 06:20:59;;;;;;;8.07;4.18;;;;;;;;;;5047542;28;20498;-64
2022/10/19 06:23:26;;;;;;;6.95;4.07;;;;;;;;;;5054191;28;20057;-65
2022/10/19 06:25:52;;;;;;;5.43;3.90;;;;;;;;;;5038341;28;20053;-64
2022/10/19 06:28:18;;;;;;;5.32;4.45;;;;;;;;;;5052086;28;20130;-64
2022/10/19 06:30:45;;;;;;;6.78;4.38;;;;;;;;;;5035548;28;20064;-64
2022/10/19 06:33:12;;;;;;;8.02;4.38;;;;;;;;;;5032204;28;20537;-64
2022/10/19 06:35:41;;;;;;;6.70;4.63;;;;;;;;;;5051023;28;20052;-64
2022/10/19 06:38:07;;;;;;;15.45;4.88;;;;;;;;;;5047534;28;20080;-64
2022/10/19 06:40:34;;;;;;;6.60;4.32;;;;;;;;;;5043948;28;20495;-64
2022/10/19 06:43:01;;;;;;;8.05;4.60;;;;;;;;;;5034519;28;20054;-64
2022/10/19 06:45:27;;;;;;;6.50;4.80;;;;;;;;;;5058215;28;20059;-65
2022/10/19 06:48:00;;;;;;;8.45;4.53;;;;;;;;;;5060057;28;20049;-65
2022/10/19 06:50:32;;;;;;;7.47;4.72;;;;;;;;;;5038835;28;20091;-65
2022/10/19 06:52:58;;;;;;;10.98;5.20;;;;;;;;;;5045106;28;20053;-65
2022/10/19 06:55:25;;;;;;;6.70;4.72;;;;;;;;;;5041653;28;20068;-65
2022/10/19 06:57:51;;;;;;;8.88;4.95;;;;;;;;;;5052816;28;20060;-65
2022/10/19 07:00:18;;;;;;;9.90;4.93;;;;;;;;;;5054186;28;20061;-65
2022/10/19 07:02:44;;;;;;;8.10;4.78;;;;;;;;;;5041976;28;20054;-65
2022/10/19 07:05:10;;;;;;;10.73;5.50;;;;;;;;;;5057549;28;20049;-64
2022/10/19 07:07:36;;;;;;;6.90;4.47;;;;;;;;;;5050406;28;20520;-65
2022/10/19 07:10:03;;;;;;;9.18;4.40;;;;;;;;;;5057783;28;20057;-65
2022/10/19 07:12:30;;;;;;;11.30;4.72;;;;;;;;;;5041077;28;20053;-65
2022/10/19 07:14:57;;;;;;;8.65;4.47;;;;;;;;;;5030456;28;20056;-66
2022/10/19 07:17:23;;;;;;;5.85;4.20;;;;;;;;;;5045966;28;20061;-65
2022/10/19 07:19:50;;;;;;;6.70;4.10;;;;;;;;;;5063195;28;20068;-65
2022/10/19 07:22:16;;;;;;;4.80;4.00;;;;;;;;;;5045455;28;20527;-65
2022/10/19 07:24:51;;;;;;;5.70;3.33;;;;;;;;;;5041629;28;20586;-65
2022/10/19 07:27:17;;;;;;;5.55;3.22;;;;;;;;;;5041383;28;20339;-65
2022/10/19 07:29:43;;;;;;;5.28;3.40;;;;;;;;;;5041935;28;20437;-65
2022/10/19 07:32:10;;;;;;;2.95;2.65;;;;;;;;;;5041374;28;20053;-65
2022/10/19 07:34:36;;;;;;;5.85;3.13;;;;;;;;;;5033632;28;20054;-65
2022/10/19 07:37:02;;;;;;;13.63;3.22;;;;;;;;;;5050799;28;20469;-65
2022/10/19 07:39:28;;;;;;;6.10;3.22;;;;;;;;;;5051543;28;20053;-65
2022/10/19 07:41:55;;;;;;;7.72;3.05;;;;;;;;;;5040939;28;20542;-65
2022/10/19 07:44:21;;;;;;;9.55;3.03;;;;;;;;;;5050748;28;20139;-65
2022/10/19 07:46:48;;;;;;;11.40;3.20;;;;;;;;;;5045571;28;20544;-65
2022/10/19 07:49:18;;;;;;;9.20;3.05;;;;;;;;;;5040519;28;20546;-66
2022/10/19 07:51:45;;;;;;;9.65;3.20;;;;;;;;;;5040671;28;20053;-65
2022/10/19 07:54:12;;;;;;;7.07;2.90;;;;;;;;;;5037627;28;20091;-65
2022/10/19 07:56:39;;;;;;;6.72;2.72;;;;;;;;;;5049908;28;20052;-66
2022/10/19 07:59:05;;;;;;;7.95;3.33;;;;;;;;;;5056706;28;20500;-66
2022/10/19 08:01:33;;;;;;;7.55;2.80;;;;;;;;;;5059369;28;20049;-65
2022/10/19 08:03:59;;;;;;;6.13;2.92;;;;;;;;;;5054549;28;20048;-65
2022/10/19 08:06:45;;;;;;;13.75;3.38;;;;;;;;;;5047098;28;20242;-66
2022/10/19 08:09:12;;;;;;;9.50;2.63;;;;;;;;;;5040704;28;20095;-66
2022/10/19 08:11:59;;;;;;;6.90;3.03;;;;;;;;;;5058790;28;20048;-66
2022/10/19 08:14:25;;;;;;;7.90;2.42;;;;;;;;;;5052083;28;20122;-65
2022/10/19 08:16:51;;;;;;;11.15;3.40;;;;;;;;;;5058335;28;20052;-65
2022/10/19 08:19:18;;;;;;;10.80;3.00;;;;;;;;;;5052196;28;20400;-65
2022/10/19 08:21:45;;;;;;;7.97;3.03;;;;;;;;;;5039703;28;20057;-65
2022/10/19 08:24:12;;;;;;;7.85;2.88;;;;;;;;;;5038178;28;20068;-66
2022/10/19 08:26:39;;;;;;;9.90;3.55;;;;;;;;;;5041535;28;20060;-66
2022/10/19 08:29:05;;;;;;;6.15;3.00;;;;;;;;;;5040318;28;20049;-65
2022/10/19 08:31:31;;;;;;;5.78;2.78;;;;;;;;;;5041635;28;20553;-67
2022/10/19 08:33:58;;;;;;;8.63;3.30;;;;;;;;;;5046798;28;20053;-65
2022/10/19 08:36:25;;;;;;;9.30;3.38;;;;;;;;;;5049657;28;20053;-64
2022/10/19 08:38:51;;;;;;;6.90;2.95;;;;;;;;;;5040030;28;20593;-65
2022/10/19 08:41:20;;;;;;;10.32;4.13;;;;;;;;;;5061734;28;20056;-65
2022/10/19 08:43:58;;;;;;;5.80;3.53;;;;;;;;;;5060753;28;20518;-65
2022/10/19 08:46:43;;;;;;;9.43;3.42;;;;;;;;;;5061939;28;20052;-65
2022/10/19 08:49:12;;;;;;;10.52;4.07;;;;;;;;;;5057339;28;20077;-65
2022/10/19 08:51:39;;;;;;;8.00;3.28;;;;;;;;;;5057925;28;20515;-65
2022/10/19 08:54:11;;;;;;;6.30;3.15;;;;;;;;;;5049100;28;20057;-64
2022/10/19 08:56:48;;;;;;;10.50;4.47;;;;;;;;;;5060772;28;20059;-65
2022/10/19 08:59:36;;;;;;;8.85;3.80;;;;;;;;;;5056521;28;20053;-65
2022/10/19 09:02:13;;;;;;;7.82;3.53;;;;;;;;;;5058729;28;20521;-65
2022/10/19 09:04:40;;;;;;;10.40;3.58;;;;;;;;;;5023976;28;20061;-65
2022/10/19 09:07:07;;;;;;;7.88;3.50;;;;;;;;;;5047380;28;20056;-65
2022/10/19 09:09:34;;;;;;;7.03;3.30;;;;;;;;;;5049697;28;20489;-65
2022/10/19 09:12:03;;;;;;;13.68;3.75;;;;;;;;;;5049228;28;20072;-65
2022/10/19 09:14:53;;;;;;;8.88;2.90;;;;;;;;;;5053032;28;20455;-65
2022/10/19 09:17:20;;;;;;;5.80;3.60;;;;;;;;;;5056801;28;20060;-65
2022/10/19 09:19:46;;;;;;;10.55;3.50;;;;;;;;;;5057691;28;20931;-65
2022/10/19 09:22:23;;;;;;;7.32;4.00;;;;;;;;;;5044999;28;20045;-65
2022/10/19 09:24:51;;;;;;;10.18;3.42;;;;;;;;;;5056830;28;20111;-65
2022/10/19 09:27:22;;;;;;;13.10;3.67;;;;;;;;;;5050368;28;20060;-65
2022/10/19 09:30:00;;;;;;;4.97;3.17;;;;;;;;;;5042209;28;20045;-65
2022/10/19 09:32:36;;;;;;;7.40;3.67;;;;;;;;;;5058934;28;20048;-65
2022/10/19 09:35:26;;;;;;;7.90;3.33;;;;;;;;;;5062749;28;20273;-65
2022/10/19 09:37:53;;;;;;;8.70;3.40;;;;;;;;;;5058825;28;20052;-65
2022/10/19 09:40:21;;;;;;;9.98;3.53;;;;;;;;;;5055629;28;20052;-65
2022/10/19 09:42:55;;;;;;;5.38;2.53;;;;;;;;;;5043118;28;20058;-64
2022/10/19 09:45:31;;;;;;;8.20;2.78;;;;;;;;;;5046821;28;20519;-65
2022/10/19 09:47:58;;;;;;;10.02;2.80;;;;;;;;;;5058662;28;20057;-65
2022/10/19 09:50:41;;;;;;;5.57;2.53;;;;;;;;;;5063655;28;20107;-65
2022/10/19 09:53:14;;;;;;;10.13;3.95;;;;;;;;;;5048282;28;20503;-65
2022/10/19 09:55:42;;;;;;;4.95;2.50;;;;;;;;;;5056586;28;20522;-65
2022/10/19 09:58:08;;;;;;;6.13;2.20;;;;;;;;;;5059855;28;20056;-65
2022/10/19 10:00:41;;;;;;;7.72;2.50;;;;;;;;;;5047786;28;20071;-65
2022/10/19 10:03:21;;;;;;;9.48;3.20;;;;;;;;;;5042579;28;20064;-65
2022/10/19 10:05:48;;;;;;;9.48;2.90;;;;;;;;;;5040689;28;20100;-66
2022/10/19 10:08:16;;;;;;;5.28;1.85;;;;;;;;;;5043898;28;20067;-66
2022/10/19 10:10:51;;;;;;;6.57;1.83;;;;;;;;;;5046344;28;20411;-67
2022/10/19 10:13:19;;;;;;;7.47;1.83;;;;;;;;;;5053097;28;20061;-65
2022/10/19 10:15:47;;;;;;;4.07;1.58;;;;;;;;;;5040305;28;20508;-65
2022/10/19 10:18:15;;;;;;;4.80;1.42;;;;;;;;;;5039898;28;20069;-66
2022/10/19 10:21:01;;;;;;;2.90;1.55;;;;;;;;;;5042423;28;20065;-66
2022/10/19 10:23:35;;;;;;;3.22;1.67;;;;;;;;;;5043791;28;20426;-64
2022/10/19 10:26:02;;;;;;;7.57;1.90;;;;;;;;;;5046064;28;20140;-65
2022/10/19 10:28:29;;;;;;;4.03;1.60;;;;;;;;;;5045839;28;20057;-65
2022/10/19 10:31:03;;;;;;;8.18;1.73;;;;;;;;;;5044549;28;20053;-62
2022/10/19 19:37:18;;;;;;;7.13;4.13;;;;;;;;;;5134774;27;20399;-63
2022/10/19 19:39:45;;;;;;;9.20;4.72;;;;;;;;;;5119404;27;20048;-63
2022/10/19 19:42:11;;;;;;;7.35;3.97;;;;;;;;;;5118301;27;20056;-63
2022/10/19 19:44:38;;;;;;;7.63;4.72;;;;;;;;;;5112629;27;20509;-62
2022/10/19 19:47:04;;;;;;;4.97;4.00;;;;;;;;;;5130284;27;20073;-64
2022/10/19 19:49:30;;;;;;;7.28;3.70;;;;;;;;;;5117086;27;20044;-64
2022/10/19 19:51:57;;;;;;;4.57;3.65;;;;;;;;;;5118715;27;20091;-64
2022/10/19 19:54:23;;;;;;;6.45;3.40;;;;;;;;;;5116113;27;20048;-62
2022/10/19 19:56:51;;;;;;;7.22;3.72;;;;;;;;;;5116725;27;20513;-63
2022/10/19 19:59:17;;;;;;;4.88;3.88;;;;;;;;;;5116332;27;20571;-63
2022/10/19 20:01:43;;;;;;;11.20;3.97;;;;;;;;;;5114999;27;20062;-62
2022/10/19 20:04:10;;;;;;;8.23;3.97;;;;;;;;;;5105992;27;20059;-62
2022/10/19 20:06:37;;;;;;;9.18;3.83;;;;;;;;;;5118857;27;20044;-64
2022/10/19 20:09:04;;;;;;;8.52;3.63;;;;;;;;;;5122635;27;20058;-62
2022/10/19 20:11:31;;;;;;;5.43;3.35;;;;;;;;;;5119294;27;20048;-62
2022/10/19 20:13:57;;;;;;;5.10;3.47;;;;;;;;;;5114098;27;20049;-63
2022/10/19 20:16:30;;;;;;;10.02;3.50;;;;;;;;;;5115564;27;20052;-64
2022/10/19 20:19:03;;;;;;;6.20;3.47;;;;;;;;;;5115843;27;20531;-63
2022/10/19 20:21:30;;;;;;;6.35;3.30;;;;;;;;;;5105274;27;20059;-62
2022/10/19 20:23:57;;;;;;;6.55;3.78;;;;;;;;;;5115361;27;20048;-63
2022/10/19 20:26:23;;;;;;;3.63;3.15;;;;;;;;;;5116539;27;20537;-62
2022/10/19 20:28:50;;;;;;;7.53;3.20;;;;;;;;;;5117011;27;20489;-62
2022/10/19 20:31:16;;;;;;;6.00;3.38;;;;;;;;;;5118255;27;20268;-62
2022/10/19 20:33:43;;;;;;;8.07;3.83;;;;;;;;;;5115469;27;20552;-63
2022/10/19 20:36:11;;;;;;;4.82;4.18;;;;;;;;;;5113965;27;20357;-62
2022/10/19 20:38:38;;;;;;;4.10;3.28;;;;;;;;;;5117862;27;20051;-63
2022/10/19 20:41:06;;;;;;;6.45;4.20;;;;;;;;;;5122116;27;20455;-62
2022/10/19 20:43:34;;;;;;;5.10;3.58;;;;;;;;;;5119473;27;20062;-62
2022/10/19 20:46:04;;;;;;;7.07;3.60;;;;;;;;;;5116930;27;20517;-62
2022/10/19 20:48:31;;;;;;;7.90;3.83;;;;;;;;;;5105000;27;20131;-62
2022/10/19 20:51:11;;;;;;;7.90;3.90;;;;;;;;;;5104487;27;20048;-62
2022/10/19 20:53:37;;;;;;;8.18;3.63;;;;;;;;;;5099517;27;20530;-63
2022/10/19 20:56:07;;;;;;;7.82;3.70;;;;;;;;;;5103468;27;20052;-62
2022/10/19 20:58:34;;;;;;;6.82;3.55;;;;;;;;;;5088993;27;20044;-62
2022/10/19 21:01:05;;;;;;;7.70;3.25;;;;;;;;;;5101712;27;20048;-64
2022/10/19 21:03:31;;;;;;;6.63;3.63;;;;;;;;;;5093766;27;20048;-63
2022/10/19 21:06:00;;;;;;;4.78;3.33;;;;;;;;;;5102967;28;20510;-63
2022/10/19 21:08:26;;;;;;;6.00;3.90;;;;;;;;;;5103728;27;20430;-63
2022/10/19 21:10:53;;;;;;;8.13;3.28;;;;;;;;;;5104127;27;20080;-62
2022/10/19 21:13:19;;;;;;;4.82;2.97;;;;;;;;;;5103302;27;20048;-63
2022/10/19 21:15:46;;;;;;;5.50;3.60;;;;;;;;;;5102714;27;20052;-62
2022/10/19 21:18:12;;;;;;;6.57;3.53;;;;;;;;;;5103959;27;20048;-63
2022/10/19 21:20:38;;;;;;;5.95;3.20;;;;;;;;;;5104275;27;20125;-62
2022/10/19 21:23:05;;;;;;;6.10;3.63;;;;;;;;;;5103115;27;20063;-62
2022/10/19 21:25:31;;;;;;;11.20;3.50;;;;;;;;;;5107630;27;20051;-62
2022/10/19 21:27:57;;;;;;;5.88;3.85;;;;;;;;;;5114279;27;20052;-63
2022/10/19 21:30:24;;;;;;;7.93;3.72;;;;;;;;;;5102063;27;20102;-64
2022/10/19 21:32:50;;;;;;;10.40;3.92;;;;;;;;;;5102578;27;20048;-62
2022/10/19 21:35:17;;;;;;;10.48;4.28;;;;;;;;;;5103034;27;20056;-62
2022/10/19 21:37:43;;;;;;;9.18;3.55;;;;;;;;;;5101385;27;20059;-63
2022/10/19 21:40:10;;;;;;;8.55;3.78;;;;;;;;;;5108468;27;20071;-62
2022/10/19 21:42:36;;;;;;;6.13;4.10;;;;;;;;;;5102288;27;20056;-62
2022/10/19 21:45:02;;;;;;;5.22;3.50;;;;;;;;;;5094282;28;20383;-62
2022/10/19 21:47:49;;;;;;;5.85;3.50;;;;;;;;;;5097433;28;20494;-62
2022/10/19 21:50:16;;;;;;;9.27;3.58;;;;;;;;;;5104797;27;20059;-63
2022/10/19 21:52:43;;;;;;;8.48;3.97;;;;;;;;;;5117608;27;20048;-62
2022/10/19 21:55:09;;;;;;;3.90;3.38;;;;;;;;;;5098417;27;20055;-63
2022/10/19 21:57:36;;;;;;;6.70;4.15;;;;;;;;;;5099114;27;20052;-62
2022/10/19 22:00:03;;;;;;;7.28;3.97;;;;;;;;;;5086079;27;20079;-63
2022/10/19 22:02:30;;;;;;;5.82;3.63;;;;;;;;;;5100155;27;20055;-62
2022/10/19 22:04:56;;;;;;;10.25;4.13;;;;;;;;;;5102015;27;20048;-63
2022/10/19 22:07:23;;;;;;;6.13;4.45;;;;;;;;;;5103092;27;20050;-62
2022/10/19 22:09:50;;;;;;;7.20;3.97;;;;;;;;;;5104208;27;20055;-62
2022/10/19 22:12:16;;;;;;;5.72;3.47;;;;;;;;;;5094801;27;20256;-62
2022/10/19 22:14:44;;;;;;;6.00;4.22;;;;;;;;;;5088894;27;20686;-63
2022/10/19 22:17:10;;;;;;;9.98;4.20;;;;;;;;;;5103105;27;20055;-63
2022/10/19 22:19:36;;;;;;;5.90;3.60;;;;;;;;;;5104810;27;20599;-61
2022/10/19 22:22:03;;;;;;;5.70;3.42;;;;;;;;;;5108216;27;20048;-64
2022/10/19 22:24:29;;;;;;;9.23;3.97;;;;;;;;;;5089175;27;20055;-62
2022/10/19 22:26:55;;;;;;;8.25;3.83;;;;;;;;;;5102925;27;20043;-62
2022/10/19 22:29:22;;;;;;;8.05;4.13;;;;;;;;;;5103842;27;20071;-62
2022/10/19 22:31:48;;;;;;;4.97;3.38;;;;;;;;;;5101384;27;20052;-63
2022/10/19 22:34:15;;;;;;;8.73;3.83;;;;;;;;;;5102251;27;20079;-63
2022/10/19 22:36:42;;;;;;;5.30;3.65;;;;;;;;;;5099701;27;20417;-61
2022/10/19 22:39:09;;;;;;;7.43;3.60;;;;;;;;;;5090108;27;20067;-62
2022/10/19 22:42:03;;;;;;;6.10;4.32;;;;;;;;;;5094049;27;20048;-62
2022/10/19 22:44:30;;;;;;;5.40;4.20;;;;;;;;;;5101769;27;20502;-63
2022/10/19 22:46:57;;;;;;;5.93;4.10;;;;;;;;;;5102912;28;20146;-63
2022/10/19 22:49:23;;;;;;;12.35;4.43;;;;;;;;;;5102033;28;20052;-62
2022/10/19 22:51:49;;;;;;;9.27;3.95;;;;;;;;;;5114066;27;20063;-62
2022/10/19 22:54:16;;;;;;;8.50;4.57;;;;;;;;;;5111259;27;20059;-63
2022/10/19 22:56:42;;;;;;;4.53;3.90;;;;;;;;;;5100860;27;20524;-62
2022/10/19 22:59:08;;;;;;;8.98;4.32;;;;;;;;;;5110297;27;20059;-62
2022/10/19 23:01:35;;;;;;;7.15;3.92;;;;;;;;;;5102226;27;20531;-62
2022/10/19 23:04:01;;;;;;;5.22;3.58;;;;;;;;;;5100581;28;20055;-61
2022/10/19 23:06:28;;;;;;;5.82;4.15;;;;;;;;;;5097766;27;20438;-61
2022/10/19 23:08:54;;;;;;;5.50;4.15;;;;;;;;;;5107823;27;20048;-63
2022/10/19 23:11:21;;;;;;;6.78;4.35;;;;;;;;;;5100630;27;21446;-63
2022/10/19 23:13:47;;;;;;;6.10;4.05;;;;;;;;;;5101151;27;20048;-63
2022/10/19 23:16:14;;;;;;;6.07;4.05;;;;;;;;;;5100949;28;20054;-62
2022/10/19 23:18:40;;;;;;;6.55;3.85;;;;;;;;;;5099435;27;20048;-62
2022/10/19 23:21:08;;;;;;;6.40;4.50;;;;;;;;;;5090494;28;20654;-62
2022/10/19 23:23:35;;;;;;;6.75;4.57;;;;;;;;;;5094798;27;20167;-62
2022/10/19 23:26:09;;;;;;;9.65;4.45;;;;;;;;;;5098142;27;20537;-63
2022/10/19 23:28:36;;;;;;;5.47;4.30;;;;;;;;;;5100041;28;20052;-62
2022/10/19 23:31:07;;;;;;;8.43;4.28;;;;;;;;;;5100845;27;20644;-63
2022/10/19 23:33:33;;;;;;;8.18;4.05;;;;;;;;;;5087991;28;20056;-63
2022/10/19 23:36:01;;;;;;;8.43;4.68;;;;;;;;;;5085277;28;20068;-62
2022/10/19 23:38:27;;;;;;;9.15;4.28;;;;;;;;;;5098736;27;20044;-63
2022/10/19 23:40:53;;;;;;;10.90;4.00;;;;;;;;;;5101439;27;20052;-62
2022/10/19 23:43:20;;;;;;;5.38;3.90;;;;;;;;;;5098281;28;20051;-63
2022/10/19 23:45:46;;;;;;;6.10;4.53;;;;;;;;;;5101280;27;20078;-62
2022/10/19 23:48:12;;;;;;;5.78;4.32;;;;;;;;;;5105282;27;20060;-63
2022/10/19 23:50:39;;;;;;;5.93;4.72;;;;;;;;;;5100935;28;20056;-62
2022/10/19 23:53:05;;;;;;;8.30;4.78;;;;;;;;;;5100790;28;20048;-62